P/v Golden Gate — WDE5665 — position and weather

sailwx.info

Track history (hours):
 
Tides and Currents Weather Stations Pressure Air Temp Water Temp Dewpoint Dewpoint Depression Visibility Wind Speed Wind Dir Waves Ship Positions

P/v Golden Gate

Owner: San Francisco Bar Pilots Benevolent and Protective, San Francisco, CA. More information available from US FCC via Universal Licensing System and Coast Guard Vessel Documentation Center.

Last reported at 2015-May-25 06:33 UTC. Time now 2015-May-25 07:28 UTC.
Position N 37°48' W 122°24'.

Length 23 m; draft 2 m.

Type: Pilot. MMSI: 367370010.

Date/timePositionNaut miles runAvg speedWind from/ knotsBaromVisibWave heightAir tempDewpointWater temp
2015-May-25 06:33N 37°48' W 122°24'0 0.0
2015-May-25 05:33N 37°48' W 122°24'0 0.0
2015-May-25 04:33N 37°48' W 122°24'0 0.0
2015-May-25 03:33N 37°48' W 122°24'1 0.7
2015-May-25 02:33N 37°49' W 122°24'0 0.5
2015-May-25 01:33N 37°49' W 122°24'1 1.2
2015-May-25 00:33N 37°48' W 122°24'4 3.9
2015-May-24 23:33N 37°45' W 122°20'1 0.9
2015-May-24 22:33N 37°46' W 122°20'3 2.9
2015-May-24 21:33N 37°49' W 122°23'4 4.0
2015-May-24 20:33N 37°49' W 122°28'5 4.8
2015-May-24 19:33N 37°48' W 122°22'2 1.8
2015-May-24 18:33N 37°48' W 122°24'0 0.0
2015-May-24 17:33N 37°48' W 122°24'0 0.0
2015-May-24 16:33N 37°48' W 122°24'0 0.1
2015-May-24 15:33N 37°48' W 122°24'2 2.2
2015-May-24 14:33N 37°47' W 122°21'1 0.6
2015-May-24 13:33N 37°47' W 122°21'3 2.7
2015-May-24 12:33N 37°48' W 122°24'0 0.0
2015-May-24 11:34N 37°48' W 122°24'0 0.0
2015-May-24 10:34N 37°48' W 122°24'4 3.8
2015-May-24 09:33N 37°46' W 122°20'4 3.8
2015-May-24 08:33N 37°48' W 122°24'0 0.0
2015-May-24 07:33N 37°48' W 122°24'0 0.0
2015-May-24 06:33N 37°48' W 122°24'4 4.3
2015-May-24 05:33N 37°48' W 122°18'2 1.9
2015-May-24 04:33N 37°48' W 122°21'1 1.0
2015-May-24 03:33N 37°48' W 122°19'3 3.4
2015-May-24 02:33N 37°48' W 122°24'1 0.7
2015-May-24 01:34N 37°48' W 122°23'3 3.3
2015-May-24 00:33N 37°45' W 122°21'7 6.8
2015-May-23 23:33N 37°50' W 122°27'5 4.8
2015-May-23 22:33N 37°47' W 122°22'1 1.4
2015-May-23 21:34N 37°48' W 122°24'1 0.9
2015-May-23 20:34N 37°48' W 122°23'3 3.0
2015-May-23 19:34N 37°45' W 122°21'3 3.4
2015-May-23 18:33N 37°48' W 122°24'1 1.2
2015-May-23 17:33N 37°49' W 122°25'4 4.5
2015-May-23 16:33N 37°46' W 122°21'3 2.8
2015-May-23 15:33N 37°48' W 122°23'1 0.8
2015-May-23 14:33N 37°48' W 122°24'0 0.0
2015-May-23 13:33N 37°48' W 122°24'3 2.8
2015-May-23 12:33N 37°47' W 122°21'3 3.5
2015-May-23 11:33N 37°43' W 122°20'6 5.6
2015-May-23 10:33N 37°48' W 122°24'0 0.0
2015-May-23 09:33N 37°48' W 122°24'0 0.0
2015-May-23 08:33N 37°48' W 122°24'0 0.0
2015-May-23 07:33N 37°48' W 122°24'4 4.2
2015-May-23 06:33N 37°45' W 122°20'4 4.2
2015-May-23 05:33N 37°48' W 122°24'0 0.0
2015-May-23 04:33N 37°48' W 122°24'0 0.0
2015-May-23 03:33N 37°48' W 122°24'1 0.7
2015-May-23 02:33N 37°49' W 122°24'4 3.9
2015-May-23 01:34N 37°49' W 122°29'8 7.9
2015-May-23 00:33N 37°45' W 122°20'4 4.2
2015-May-22 23:33N 37°48' W 122°24'3 3.4
2015-May-22 22:33N 37°49' W 122°20'3 3.2
2015-May-22 21:34N 37°48' W 122°23'0 0.2
2015-May-22 20:33N 37°48' W 122°24'7 7.0
2015-May-22 19:30N 37°47' W 122°33'8 8.0
2015-May-22 18:33N 37°49' W 122°24'4 4.4
2015-May-22 17:33N 37°45' W 122°21'4 4.0
2015-May-22 16:33N 37°48' W 122°24'0 0.0
2015-May-22 15:31N 37°48' W 122°24'1 1.4
2015-May-22 14:33N 37°49' W 122°25'4 4.3
2015-May-22 13:33N 37°49' W 122°20'3 3.3
2015-May-22 12:33N 37°48' W 122°24'3 2.6
2015-May-22 11:34N 37°48' W 122°20'3 2.6
2015-May-22 10:33N 37°48' W 122°24'0 0.0
2015-May-22 09:33N 37°48' W 122°24'0 0.0
2015-May-22 08:33N 37°48' W 122°24'3 3.2
2015-May-22 07:34N 37°46' W 122°21'3 3.2
2015-May-22 06:34N 37°48' W 122°24'0 0.0
2015-May-22 05:33N 37°48' W 122°24'0 0.0
2015-May-22 04:33N 37°48' W 122°24'2 2.4
2015-May-22 03:34N 37°48' W 122°21'2 2.4
2015-May-22 02:33N 37°48' W 122°24'0 0.0
2015-May-22 01:32N 37°48' W 122°24'3 2.9
2015-May-22 00:33N 37°49' W 122°20'0 0.1
2015-May-21 23:33N 37°49' W 122°20'4 4.2
2015-May-21 22:33N 37°44' W 122°21'4 4.2
2015-May-21 21:33N 37°48' W 122°24'0 0.0
2015-May-21 20:34N 37°48' W 122°24'0 0.0
2015-May-21 19:29N 37°48' W 122°24'0 0.0
2015-May-21 18:33N 37°48' W 122°24'0 0.0
2015-May-21 17:33N 37°48' W 122°24'0 0.0
2015-May-21 16:33N 37°48' W 122°24'0 0.0
2015-May-21 15:33N 37°48' W 122°24'0 0.0
2015-May-21 14:33N 37°48' W 122°24'0 0.0
2015-May-21 13:33N 37°48' W 122°24'0 0.4
2015-May-21 12:33N 37°48' W 122°23'0 0.4
2015-May-21 11:33N 37°48' W 122°24'0 0.0
2015-May-21 10:33N 37°48' W 122°24'0 0.0
2015-May-21 09:33N 37°48' W 122°24'0 0.0
2015-May-21 08:33N 37°48' W 122°24'0 0.0
2015-May-21 07:33N 37°48' W 122°24'0 0.0
2015-May-21 06:33N 37°48' W 122°24'0 0.0
2015-May-21 05:33N 37°48' W 122°24'0 0.0
2015-May-21 04:33N 37°48' W 122°24'0 0.1
2015-May-21 03:34N 37°48' W 122°24'0 0.1
2015-May-21 02:33N 37°48' W 122°24'0 0.0
2015-May-21 01:33N 37°48' W 122°24'0 0.0
2015-May-21 00:33N 37°48' W 122°24'4 4.3
2015-May-20 23:33N 37°48' W 122°18'4 4.3
2015-May-20 22:33N 37°48' W 122°24'0 0.0
2015-May-20 21:33N 37°48' W 122°24'0 0.0
2015-May-20 20:34N 37°48' W 122°24'5 4.5
2015-May-20 19:34N 37°45' W 122°20'5 4.5
2015-May-20 18:33N 37°48' W 122°24'0 0.0
2015-May-20 17:33N 37°48' W 122°24'5 4.7
2015-May-20 16:33N 37°44' W 122°20'5 4.6
2015-May-20 15:32N 37°48' W 122°24'0 0.0
2015-May-20 14:32N 37°48' W 122°24'1310.6
2015-May-20 13:18N 37°46' W 122°40'1317.2
2015-May-20 12:33N 37°48' W 122°24'4 4.0
2015-May-20 11:34N 37°45' W 122°20'4 3.9
2015-May-20 10:33N 37°48' W 122°24'0 0.0
2015-May-20 09:33N 37°48' W 122°24'3 3.0
2015-May-20 08:33N 37°49' W 122°20'3 2.9
2015-May-20 07:33N 37°48' W 122°24'0 0.0
2015-May-20 06:33N 37°48' W 122°24'0 0.0
2015-May-20 05:34N 37°48' W 122°24'0 0.0
2015-May-20 04:34N 37°48' W 122°24'1312.1
2015-May-20 03:29N 37°46' W 122°40'1313.7
2015-May-20 02:33N 37°49' W 122°24'1 1.0
2015-May-20 01:33N 37°48' W 122°24'0 0.1
2015-May-20 00:33N 37°48' W 122°24'2 2.5
2015-May-19 23:33N 37°47' W 122°21'2 2.4
2015-May-19 22:33N 37°48' W 122°24'3 2.9
2015-May-19 21:33N 37°49' W 122°20'0 0.1
2015-May-19 20:33N 37°49' W 122°20'1 0.5
2015-May-19 19:34N 37°48' W 122°20'1 1.0
2015-May-19 18:33N 37°48' W 122°19'11 9.7
2015-May-19 17:24N 37°47' W 122°34'1011.8
2015-May-19 16:33N 37°48' W 122°21'2 2.1
2015-May-19 15:33N 37°48' W 122°24'3 3.0
2015-May-19 14:33N 37°49' W 122°20'4 4.2
2015-May-19 13:33N 37°49' W 122°25'2 1.6
2015-May-19 12:33N 37°48' W 122°24'0 0.0
2015-May-19 11:33N 37°48' W 122°24'3 3.1
2015-May-19 10:33N 37°48' W 122°20'3 2.7
2015-May-19 09:33N 37°48' W 122°23'0 0.4
2015-May-19 08:33N 37°48' W 122°24'0 0.0
2015-May-19 07:33N 37°48' W 122°24'0 0.0
2015-May-19 06:33N 37°48' W 122°24'4 4.1
2015-May-19 05:34N 37°48' W 122°19'4 4.0
2015-May-19 04:32N 37°48' W 122°24'1 1.2
2015-May-19 03:34N 37°48' W 122°22'1 1.1
2015-May-19 02:34N 37°48' W 122°24'1 1.0
2015-May-19 01:33N 37°47' W 122°23'3 3.2
2015-May-19 00:33N 37°49' W 122°19'3 3.1
2015-May-18 23:33N 37°46' W 122°21'0 0.4
2015-May-18 22:34N 37°46' W 122°21'3 2.7
2015-May-18 21:33N 37°48' W 122°21'1 1.4
2015-May-18 20:34N 37°47' W 122°22'2 1.7
2015-May-18 19:32N 37°48' W 122°24'0 0.0
2015-May-18 18:33N 37°48' W 122°24'1 1.3
2015-May-18 17:34N 37°48' W 122°22'1 1.3
2015-May-18 16:33N 37°48' W 122°24'3 2.8
2015-May-18 15:34N 37°46' W 122°22'3 2.5
2015-May-18 14:33N 37°48' W 122°23'2 1.4
2015-May-18 13:23N 37°49' W 122°25'1 1.5
2015-May-18 12:33N 37°48' W 122°24'2 2.3
2015-May-18 11:34N 37°48' W 122°21'1 0.6
2015-May-18 10:33N 37°49' W 122°20'3 2.8
2015-May-18 09:33N 37°48' W 122°24'6 5.8
2015-May-18 08:33N 37°48' W 122°31'6 5.4
2015-May-18 07:32N 37°49' W 122°24'1 0.8
2015-May-18 06:29N 37°48' W 122°24'0 0.0
2015-May-18 05:33N 37°48' W 122°24'0 0.0
2015-May-18 04:33N 37°48' W 122°24'0 0.0
2015-May-18 03:33N 37°48' W 122°24'0 0.0
2015-May-18 02:33N 37°48' W 122°24'0 0.0
2015-May-18 01:32N 37°48' W 122°24'0 0.0
2015-May-18 00:33N 37°48' W 122°24'2 2.4
2015-May-17 23:33N 37°47' W 122°22'2 2.4
2015-May-17 22:33N 37°48' W 122°24'0 0.0
2015-May-17 21:33N 37°48' W 122°24'2 2.3
2015-May-17 20:33N 37°48' W 122°21'2 2.3
2015-May-17 19:33N 37°46' W 122°21'3 2.9
2015-May-17 18:31N 37°48' W 122°24'0 0.0
2015-May-17 17:33N 37°48' W 122°24'0 0.0
2015-May-17 16:31N 37°48' W 122°24'0 0.0
2015-May-17 15:32N 37°48' W 122°24'0 0.0
2015-May-17 14:33N 37°48' W 122°24'1 0.9
2015-May-17 13:33N 37°48' W 122°23'3 2.6
2015-May-17 12:33N 37°48' W 122°19'3 3.4
2015-May-17 11:33N 37°48' W 122°24'0 0.0
2015-May-17 10:34N 37°48' W 122°24'0 0.0
2015-May-17 09:34N 37°48' W 122°24'3 2.9
2015-May-17 08:33N 37°49' W 122°27'6 6.1
2015-May-17 07:33N 37°48' W 122°20'3 3.2
2015-May-17 06:32N 37°48' W 122°24'0 0.0
2015-May-17 05:32N 37°48' W 122°24'1 1.4
2015-May-17 04:33N 37°49' W 122°24'2 1.5
2015-May-17 03:34N 37°48' W 122°23'3 2.8
2015-May-17 02:33N 37°46' W 122°21'3 2.6
2015-May-17 01:34N 37°48' W 122°22'1 1.2
2015-May-17 00:34N 37°48' W 122°24'5 5.3
2015-May-16 23:33N 37°53' W 122°26'5 5.4
2015-May-16 22:33N 37°48' W 122°24'0 0.0
2015-May-16 21:32N 37°48' W 122°24'2 2.1
2015-May-16 20:33N 37°47' W 122°22'9 9.2
2015-May-16 19:32N 37°47' W 122°34'8 7.9
2015-May-16 18:33N 37°48' W 122°24'0 0.0
2015-May-16 17:33N 37°48' W 122°24'1 1.2
2015-May-16 16:32N 37°49' W 122°25'3 2.9
2015-May-16 15:34N 37°48' W 122°22'2 1.7
2015-May-16 14:33N 37°48' W 122°24'1 1.4
2015-May-16 13:33N 37°47' W 122°23'1 1.2
2015-May-16 12:30N 37°48' W 122°24'0 0.0
2015-May-16 11:33N 37°48' W 122°24'0 0.0
2015-May-16 10:32N 37°48' W 122°24'0 0.0
2015-May-16 09:32N 37°48' W 122°24'0 0.0
2015-May-16 08:30N 37°48' W 122°24'0 0.0
2015-May-16 07:30N 37°48' W 122°24'0 0.0
2015-May-16 06:32N 37°48' W 122°24'0 0.0
2015-May-16 05:33N 37°48' W 122°24'0 0.0
2015-May-16 04:33N 37°48' W 122°24'1 0.7
2015-May-16 03:33N 37°49' W 122°24'8 8.1
2015-May-16 02:33N 37°47' W 122°34'8 8.5
2015-May-16 01:33N 37°48' W 122°24'0 0.2
2015-May-16 00:33N 37°48' W 122°24'0 0.0
2015-May-15 23:33N 37°48' W 122°24'0 0.0
2015-May-15 22:34N 37°48' W 122°24'3 3.3
2015-May-15 21:33N 37°46' W 122°20'3 3.3
2015-May-15 20:34N 37°48' W 122°24'0 0.0
2015-May-15 19:33N 37°48' W 122°24'0 0.0
2015-May-15 18:33N 37°48' W 122°24'3 3.3
2015-May-15 17:33N 37°49' W 122°20'3 3.3
2015-May-15 16:33N 37°48' W 122°24'0 0.0
2015-May-15 14:33N 37°48' W 122°24'0 0.0
2015-May-15 13:18N 37°48' W 122°24'0 0.0
2015-May-15 12:33N 37°48' W 122°24'0 0.0
2015-May-15 11:29N 37°48' W 122°24'2 2.0
2015-May-15 10:33N 37°47' W 122°22'2 1.8
2015-May-15 09:33N 37°48' W 122°24'0 0.0
2015-May-15 08:33N 37°48' W 122°24'0 0.0
2015-May-15 07:33N 37°48' W 122°24'  
Track history (hours):
 
Tides and Currents Weather Stations Pressure Air Temp Water Temp Dewpoint Dewpoint Depression Visibility Wind Speed Wind Dir Waves Ship Positions

P/v Golden Gate

Owner: San Francisco Bar Pilots Benevolent and Protective, San Francisco, CA. More information available from US FCC via Universal Licensing System and Coast Guard Vessel Documentation Center.

Last reported at 2015-May-25 06:33 UTC. Time now 2015-May-25 07:28 UTC.
Position N 37°48' W 122°24'.

Length 23 m; draft 2 m.

Type: Pilot. MMSI: 367370010.

Date/timePositionNaut miles runAvg speedWind from/ knotsBaromVisibWave heightAir tempDewpointWater temp
2015-May-25 06:33N 37°48' W 122°24'0 0.0
2015-May-25 05:33N 37°48' W 122°24'0 0.0
2015-May-25 04:33N 37°48' W 122°24'0 0.0
2015-May-25 03:33N 37°48' W 122°24'1 0.7
2015-May-25 02:33N 37°49' W 122°24'0 0.5
2015-May-25 01:33N 37°49' W 122°24'1 1.2
2015-May-25 00:33N 37°48' W 122°24'4 3.9
2015-May-24 23:33N 37°45' W 122°20'1 0.9
2015-May-24 22:33N 37°46' W 122°20'3 2.9
2015-May-24 21:33N 37°49' W 122°23'4 4.0
2015-May-24 20:33N 37°49' W 122°28'5 4.8
2015-May-24 19:33N 37°48' W 122°22'2 1.8
2015-May-24 18:33N 37°48' W 122°24'0 0.0
2015-May-24 17:33N 37°48' W 122°24'0 0.0
2015-May-24 16:33N 37°48' W 122°24'0 0.1
2015-May-24 15:33N 37°48' W 122°24'2 2.2
2015-May-24 14:33N 37°47' W 122°21'1 0.6
2015-May-24 13:33N 37°47' W 122°21'3 2.7
2015-May-24 12:33N 37°48' W 122°24'0 0.0
2015-May-24 11:34N 37°48' W 122°24'0 0.0
2015-May-24 10:34N 37°48' W 122°24'4 3.8
2015-May-24 09:33N 37°46' W 122°20'4 3.8
2015-May-24 08:33N 37°48' W 122°24'0 0.0
2015-May-24 07:33N 37°48' W 122°24'0 0.0
2015-May-24 06:33N 37°48' W 122°24'4 4.3
2015-May-24 05:33N 37°48' W 122°18'2 1.9
2015-May-24 04:33N 37°48' W 122°21'1 1.0
2015-May-24 03:33N 37°48' W 122°19'3 3.4
2015-May-24 02:33N 37°48' W 122°24'1 0.7
2015-May-24 01:34N 37°48' W 122°23'3 3.3
2015-May-24 00:33N 37°45' W 122°21'7 6.8
2015-May-23 23:33N 37°50' W 122°27'5 4.8
2015-May-23 22:33N 37°47' W 122°22'1 1.4
2015-May-23 21:34N 37°48' W 122°24'1 0.9
2015-May-23 20:34N 37°48' W 122°23'3 3.0
2015-May-23 19:34N 37°45' W 122°21'3 3.4
2015-May-23 18:33N 37°48' W 122°24'1 1.2
2015-May-23 17:33N 37°49' W 122°25'4 4.5
2015-May-23 16:33N 37°46' W 122°21'3 2.8
2015-May-23 15:33N 37°48' W 122°23'1 0.8
2015-May-23 14:33N 37°48' W 122°24'0 0.0
2015-May-23 13:33N 37°48' W 122°24'3 2.8
2015-May-23 12:33N 37°47' W 122°21'3 3.5
2015-May-23 11:33N 37°43' W 122°20'6 5.6
2015-May-23 10:33N 37°48' W 122°24'0 0.0
2015-May-23 09:33N 37°48' W 122°24'0 0.0
2015-May-23 08:33N 37°48' W 122°24'0 0.0
2015-May-23 07:33N 37°48' W 122°24'4 4.2
2015-May-23 06:33N 37°45' W 122°20'4 4.2
2015-May-23 05:33N 37°48' W 122°24'0 0.0
2015-May-23 04:33N 37°48' W 122°24'0 0.0
2015-May-23 03:33N 37°48' W 122°24'1 0.7
2015-May-23 02:33N 37°49' W 122°24'4 3.9
2015-May-23 01:34N 37°49' W 122°29'8 7.9
2015-May-23 00:33N 37°45' W 122°20'4 4.2
2015-May-22 23:33N 37°48' W 122°24'3 3.4
2015-May-22 22:33N 37°49' W 122°20'3 3.2
2015-May-22 21:34N 37°48' W 122°23'0 0.2
2015-May-22 20:33N 37°48' W 122°24'7 7.0
2015-May-22 19:30N 37°47' W 122°33'8 8.0
2015-May-22 18:33N 37°49' W 122°24'4 4.4
2015-May-22 17:33N 37°45' W 122°21'4 4.0
2015-May-22 16:33N 37°48' W 122°24'0 0.0
2015-May-22 15:31N 37°48' W 122°24'1 1.4
2015-May-22 14:33N 37°49' W 122°25'4 4.3
2015-May-22 13:33N 37°49' W 122°20'3 3.3
2015-May-22 12:33N 37°48' W 122°24'3 2.6
2015-May-22 11:34N 37°48' W 122°20'3 2.6
2015-May-22 10:33N 37°48' W 122°24'0 0.0
2015-May-22 09:33N 37°48' W 122°24'0 0.0
2015-May-22 08:33N 37°48' W 122°24'3 3.2
2015-May-22 07:34N 37°46' W 122°21'3 3.2
2015-May-22 06:34N 37°48' W 122°24'0 0.0
2015-May-22 05:33N 37°48' W 122°24'0 0.0
2015-May-22 04:33N 37°48' W 122°24'2 2.4
2015-May-22 03:34N 37°48' W 122°21'2 2.4
2015-May-22 02:33N 37°48' W 122°24'0 0.0
2015-May-22 01:32N 37°48' W 122°24'3 2.9
2015-May-22 00:33N 37°49' W 122°20'0 0.1
2015-May-21 23:33N 37°49' W 122°20'4 4.2
2015-May-21 22:33N 37°44' W 122°21'4 4.2
2015-May-21 21:33N 37°48' W 122°24'0 0.0
2015-May-21 20:34N 37°48' W 122°24'0 0.0
2015-May-21 19:29N 37°48' W 122°24'0 0.0
2015-May-21 18:33N 37°48' W 122°24'0 0.0
2015-May-21 17:33N 37°48' W 122°24'0 0.0
2015-May-21 16:33N 37°48' W 122°24'0 0.0
2015-May-21 15:33N 37°48' W 122°24'0 0.0
2015-May-21 14:33N 37°48' W 122°24'0 0.0
2015-May-21 13:33N 37°48' W 122°24'0 0.4
2015-May-21 12:33N 37°48' W 122°23'0 0.4
2015-May-21 11:33N 37°48' W 122°24'0 0.0
2015-May-21 10:33N 37°48' W 122°24'0 0.0
2015-May-21 09:33N 37°48' W 122°24'0 0.0
2015-May-21 08:33N 37°48' W 122°24'0 0.0
2015-May-21 07:33N 37°48' W 122°24'0 0.0
2015-May-21 06:33N 37°48' W 122°24'0 0.0
2015-May-21 05:33N 37°48' W 122°24'0 0.0
2015-May-21 04:33N 37°48' W 122°24'0 0.1
2015-May-21 03:34N 37°48' W 122°24'0 0.1
2015-May-21 02:33N 37°48' W 122°24'0 0.0
2015-May-21 01:33N 37°48' W 122°24'0 0.0
2015-May-21 00:33N 37°48' W 122°24'4 4.3
2015-May-20 23:33N 37°48' W 122°18'4 4.3
2015-May-20 22:33N 37°48' W 122°24'0 0.0
2015-May-20 21:33N 37°48' W 122°24'0 0.0
2015-May-20 20:34N 37°48' W 122°24'5 4.5
2015-May-20 19:34N 37°45' W 122°20'5 4.5
2015-May-20 18:33N 37°48' W 122°24'0 0.0
2015-May-20 17:33N 37°48' W 122°24'5 4.7
2015-May-20 16:33N 37°44' W 122°20'5 4.6
2015-May-20 15:32N 37°48' W 122°24'0 0.0
2015-May-20 14:32N 37°48' W 122°24'1310.6
2015-May-20 13:18N 37°46' W 122°40'1317.2
2015-May-20 12:33N 37°48' W 122°24'4 4.0
2015-May-20 11:34N 37°45' W 122°20'4 3.9
2015-May-20 10:33N 37°48' W 122°24'0 0.0
2015-May-20 09:33N 37°48' W 122°24'3 3.0
2015-May-20 08:33N 37°49' W 122°20'3 2.9
2015-May-20 07:33N 37°48' W 122°24'0 0.0
2015-May-20 06:33N 37°48' W 122°24'0 0.0
2015-May-20 05:34N 37°48' W 122°24'0 0.0
2015-May-20 04:34N 37°48' W 122°24'1312.1
2015-May-20 03:29N 37°46' W 122°40'1313.7
2015-May-20 02:33N 37°49' W 122°24'1 1.0
2015-May-20 01:33N 37°48' W 122°24'0 0.1
2015-May-20 00:33N 37°48' W 122°24'2 2.5
2015-May-19 23:33N 37°47' W 122°21'2 2.4
2015-May-19 22:33N 37°48' W 122°24'3 2.9
2015-May-19 21:33N 37°49' W 122°20'0 0.1
2015-May-19 20:33N 37°49' W 122°20'1 0.5
2015-May-19 19:34N 37°48' W 122°20'1 1.0
2015-May-19 18:33N 37°48' W 122°19'11 9.7
2015-May-19 17:24N 37°47' W 122°34'1011.8
2015-May-19 16:33N 37°48' W 122°21'2 2.1
2015-May-19 15:33N 37°48' W 122°24'3 3.0
2015-May-19 14:33N 37°49' W 122°20'4 4.2
2015-May-19 13:33N 37°49' W 122°25'2 1.6
2015-May-19 12:33N 37°48' W 122°24'0 0.0
2015-May-19 11:33N 37°48' W 122°24'3 3.1
2015-May-19 10:33N 37°48' W 122°20'3 2.7
2015-May-19 09:33N 37°48' W 122°23'0 0.4
2015-May-19 08:33N 37°48' W 122°24'0 0.0
2015-May-19 07:33N 37°48' W 122°24'0 0.0
2015-May-19 06:33N 37°48' W 122°24'4 4.1
2015-May-19 05:34N 37°48' W 122°19'4 4.0
2015-May-19 04:32N 37°48' W 122°24'1 1.2
2015-May-19 03:34N 37°48' W 122°22'1 1.1
2015-May-19 02:34N 37°48' W 122°24'1 1.0
2015-May-19 01:33N 37°47' W 122°23'3 3.2
2015-May-19 00:33N 37°49' W 122°19'3 3.1
2015-May-18 23:33N 37°46' W 122°21'0 0.4
2015-May-18 22:34N 37°46' W 122°21'3 2.7
2015-May-18 21:33N 37°48' W 122°21'1 1.4
2015-May-18 20:34N 37°47' W 122°22'2 1.7
2015-May-18 19:32N 37°48' W 122°24'0 0.0
2015-May-18 18:33N 37°48' W 122°24'1 1.3
2015-May-18 17:34N 37°48' W 122°22'1 1.3
2015-May-18 16:33N 37°48' W 122°24'3 2.8
2015-May-18 15:34N 37°46' W 122°22'3 2.5
2015-May-18 14:33N 37°48' W 122°23'2 1.4
2015-May-18 13:23N 37°49' W 122°25'1 1.5
2015-May-18 12:33N 37°48' W 122°24'2 2.3
2015-May-18 11:34N 37°48' W 122°21'1 0.6
2015-May-18 10:33N 37°49' W 122°20'3 2.8
2015-May-18 09:33N 37°48' W 122°24'6 5.8
2015-May-18 08:33N 37°48' W 122°31'6 5.4
2015-May-18 07:32N 37°49' W 122°24'1 0.8
2015-May-18 06:29N 37°48' W 122°24'0 0.0
2015-May-18 05:33N 37°48' W 122°24'0 0.0
2015-May-18 04:33N 37°48' W 122°24'0 0.0
2015-May-18 03:33N 37°48' W 122°24'0 0.0
2015-May-18 02:33N 37°48' W 122°24'0 0.0
2015-May-18 01:32N 37°48' W 122°24'0 0.0
2015-May-18 00:33N 37°48' W 122°24'2 2.4
2015-May-17 23:33N 37°47' W 122°22'2 2.4
2015-May-17 22:33N 37°48' W 122°24'0 0.0
2015-May-17 21:33N 37°48' W 122°24'2 2.3
2015-May-17 20:33N 37°48' W 122°21'2 2.3
2015-May-17 19:33N 37°46' W 122°21'3 2.9
2015-May-17 18:31N 37°48' W 122°24'0 0.0
2015-May-17 17:33N 37°48' W 122°24'0 0.0
2015-May-17 16:31N 37°48' W 122°24'0 0.0
2015-May-17 15:32N 37°48' W 122°24'0 0.0
2015-May-17 14:33N 37°48' W 122°24'1 0.9
2015-May-17 13:33N 37°48' W 122°23'3 2.6
2015-May-17 12:33N 37°48' W 122°19'3 3.4
2015-May-17 11:33N 37°48' W 122°24'0 0.0
2015-May-17 10:34N 37°48' W 122°24'0 0.0
2015-May-17 09:34N 37°48' W 122°24'3 2.9
2015-May-17 08:33N 37°49' W 122°27'6 6.1
2015-May-17 07:33N 37°48' W 122°20'3 3.2
2015-May-17 06:32N 37°48' W 122°24'0 0.0
2015-May-17 05:32N 37°48' W 122°24'1 1.4
2015-May-17 04:33N 37°49' W 122°24'2 1.5
2015-May-17 03:34N 37°48' W 122°23'3 2.8
2015-May-17 02:33N 37°46' W 122°21'3 2.6
2015-May-17 01:34N 37°48' W 122°22'1 1.2
2015-May-17 00:34N 37°48' W 122°24'5 5.3
2015-May-16 23:33N 37°53' W 122°26'5 5.4
2015-May-16 22:33N 37°48' W 122°24'0 0.0
2015-May-16 21:32N 37°48' W 122°24'2 2.1
2015-May-16 20:33N 37°47' W 122°22'9 9.2
2015-May-16 19:32N 37°47' W 122°34'8 7.9
2015-May-16 18:33N 37°48' W 122°24'0 0.0
2015-May-16 17:33N 37°48' W 122°24'1 1.2
2015-May-16 16:32N 37°49' W 122°25'3 2.9
2015-May-16 15:34N 37°48' W 122°22'2 1.7
2015-May-16 14:33N 37°48' W 122°24'1 1.4
2015-May-16 13:33N 37°47' W 122°23'1 1.2
2015-May-16 12:30N 37°48' W 122°24'0 0.0
2015-May-16 11:33N 37°48' W 122°24'0 0.0
2015-May-16 10:32N 37°48' W 122°24'0 0.0
2015-May-16 09:32N 37°48' W 122°24'0 0.0
2015-May-16 08:30N 37°48' W 122°24'0 0.0
2015-May-16 07:30N 37°48' W 122°24'0 0.0
2015-May-16 06:32N 37°48' W 122°24'0 0.0
2015-May-16 05:33N 37°48' W 122°24'0 0.0
2015-May-16 04:33N 37°48' W 122°24'1 0.7
2015-May-16 03:33N 37°49' W 122°24'8 8.1
2015-May-16 02:33N 37°47' W 122°34'8 8.5
2015-May-16 01:33N 37°48' W 122°24'0 0.2
2015-May-16 00:33N 37°48' W 122°24'0 0.0
2015-May-15 23:33N 37°48' W 122°24'0 0.0
2015-May-15 22:34N 37°48' W 122°24'3 3.3
2015-May-15 21:33N 37°46' W 122°20'3 3.3
2015-May-15 20:34N 37°48' W 122°24'0 0.0
2015-May-15 19:33N 37°48' W 122°24'0 0.0
2015-May-15 18:33N 37°48' W 122°24'3 3.3
2015-May-15 17:33N 37°49' W 122°20'3 3.3
2015-May-15 16:33N 37°48' W 122°24'0 0.0
2015-May-15 14:33N 37°48' W 122°24'0 0.0
2015-May-15 13:18N 37°48' W 122°24'0 0.0
2015-May-15 12:33N 37°48' W 122°24'0 0.0
2015-May-15 11:29N 37°48' W 122°24'2 2.0
2015-May-15 10:33N 37°47' W 122°22'2 1.8
2015-May-15 09:33N 37°48' W 122°24'0 0.0
2015-May-15 08:33N 37°48' W 122°24'0 0.0
2015-May-15 07:33N 37°48' W 122°24'  

Dump ship's entire track history